createdAt,value
2022-12-25T00:00:18.522Z,98499.53
2022-12-25T00:02:53.371Z,98497.59
2022-12-25T00:05:25.685Z,98491.00
2022-12-25T00:07:58.047Z,98494.28
2022-12-25T00:10:29.955Z,98497.56
2022-12-25T00:13:02.863Z,98507.44
2022-12-25T00:15:34.984Z,98499.53
2022-12-25T00:18:07.785Z,98498.91
2022-12-25T00:20:39.724Z,98501.63
2022-12-25T00:23:12.920Z,98487.25
2022-12-25T00:25:44.921Z,98485.28
2022-12-25T00:28:17.730Z,98484.06
2022-12-25T00:30:50.364Z,98474.84
2022-12-25T00:33:23.135Z,98486.69
2022-12-25T00:36:02.495Z,98488.03
2022-12-25T00:38:39.376Z,98480.81
2022-12-25T00:41:43.133Z,98480.19
2022-12-25T00:44:15.099Z,98480.88
2022-12-25T00:46:47.615Z,98476.84
2022-12-25T00:49:22.634Z,98482.03
2022-12-25T00:51:55.732Z,98484.03
2022-12-25T00:54:27.636Z,98483.97
2022-12-25T00:57:03.180Z,98480.72
2022-12-25T00:59:35.632Z,98489.97
2022-12-25T01:02:26.651Z,98481.34
2022-12-25T01:04:58.751Z,98486.69
2022-12-25T01:07:31.574Z,98482.09
2022-12-25T01:10:22.842Z,98474.91
2022-12-25T01:12:55.234Z,98476.19
2022-12-25T01:15:27.695Z,98465.00
2022-12-25T01:18:02.722Z,98471.59
2022-12-25T01:20:40.042Z,98475.59
2022-12-25T01:23:12.145Z,98478.94
2022-12-25T01:25:44.916Z,98475.63
2022-12-25T01:28:17.784Z,98471.72
2022-12-25T01:30:50.287Z,98476.31
2022-12-25T01:33:23.075Z,98471.75
2022-12-25T01:35:56.134Z,98472.38
2022-12-25T01:38:28.036Z,98478.94
2022-12-25T01:41:00.788Z,98480.28
2022-12-25T01:43:34.179Z,98481.59
2022-12-25T01:46:07.025Z,98487.53
2022-12-25T01:48:39.906Z,98484.94
2022-12-25T01:51:27.252Z,98483.03
2022-12-25T01:54:06.790Z,98483.03
2022-12-25T01:56:41.917Z,98488.94
2022-12-25T01:59:17.247Z,98483.03
2022-12-25T02:01:49.529Z,98489.00
2022-12-25T02:04:39.651Z,98483.72
2022-12-25T02:07:18.926Z,98486.38
2022-12-25T02:09:53.016Z,98494.25
2022-12-25T02:12:35.147Z,98491.53
2022-12-25T02:15:52.844Z,98487.50
2022-12-25T02:18:39.989Z,98474.28
2022-12-25T02:21:34.445Z,98475.56
2022-12-25T02:24:48.801Z,98474.97
2022-12-25T02:27:42.315Z,98474.97
2022-12-25T02:30:15.595Z,98465.09
2022-12-25T02:33:18.613Z,98455.94
2022-12-25T02:35:54.100Z,98451.34
2022-12-25T02:38:35.099Z,98450.69
2022-12-25T02:41:16.088Z,98449.38
2022-12-25T02:44:08.494Z,98451.34
2022-12-25T02:47:00.123Z,98450.03
2022-12-25T02:49:52.654Z,98446.75
2022-12-25T02:52:46.476Z,98452.03
2022-12-25T02:55:54.106Z,98458.59
2022-12-25T02:58:46.716Z,98443.41
2022-12-25T03:01:42.526Z,98449.94
2022-12-25T03:04:38.073Z,98442.69
2022-12-25T03:07:15.945Z,98436.75
2022-12-25T03:10:16.003Z,98430.78
2022-12-25T03:12:57.535Z,98435.38
2022-12-25T03:15:49.238Z,98432.09
2022-12-25T03:18:25.758Z,98430.13
2022-12-25T03:21:17.567Z,98425.53
2022-12-25T03:24:13.770Z,98423.59
2022-12-25T03:26:55.912Z,98419.59
2022-12-25T03:29:52.422Z,98416.34
2022-12-25T03:32:59.148Z,98408.47
2022-12-25T03:36:04.530Z,98399.94
2022-12-25T03:39:35.032Z,98390.75
2022-12-25T03:42:27.694Z,98398.00
2022-12-25T03:45:34.937Z,98395.38
2022-12-25T03:48:11.607Z,98394.06
2022-12-25T03:51:13.453Z,98390.09
2022-12-25T03:54:16.211Z,98388.81
2022-12-25T03:57:07.443Z,98388.81
2022-12-25T03:59:58.722Z,98386.19
2022-12-25T04:02:50.240Z,98391.47
2022-12-25T04:05:40.591Z,98386.19
2022-12-25T04:08:31.729Z,98385.50
2022-12-25T04:11:22.552Z,98376.97
2022-12-25T04:14:13.218Z,98382.91
2022-12-25T04:17:03.816Z,98383.63
2022-12-25T04:19:54.952Z,98375.03
2022-12-25T04:22:45.267Z,98375.03
2022-12-25T04:25:37.188Z,98384.28
2022-12-25T04:28:28.590Z,98379.66
2022-12-25T04:31:20.765Z,98382.97
2022-12-25T04:34:10.993Z,98371.09
2022-12-25T04:36:43.831Z,98365.81
2022-12-25T04:39:16.334Z,98361.88
2022-12-25T04:41:48.481Z,98371.09
2022-12-25T04:44:21.225Z,98372.44
2022-12-25T04:46:53.623Z,98362.53
2022-12-25T04:49:25.590Z,98367.78
2022-12-25T04:51:58.306Z,98361.88
2022-12-25T04:54:30.615Z,98364.53
2022-12-25T04:57:03.421Z,98348.03
2022-12-25T04:59:35.341Z,98346.72
2022-12-25T05:02:08.285Z,98348.00
2022-12-25T05:04:40.643Z,98342.75
2022-12-25T05:07:12.952Z,98352.00
2022-12-25T05:09:45.638Z,98351.34
2022-12-25T05:12:18.080Z,98342.09
2022-12-25T05:14:50.432Z,98339.47
2022-12-25T05:17:22.327Z,98336.16
2022-12-25T05:19:55.474Z,98335.53
2022-12-25T05:22:27.382Z,98332.22
2022-12-25T05:25:00.486Z,98334.22
2022-12-25T05:27:32.353Z,98330.91
2022-12-25T05:30:05.471Z,98326.97
2022-12-25T05:32:37.346Z,98331.59
2022-12-25T05:35:10.349Z,98321.66
2022-12-25T05:37:42.234Z,98324.31
2022-12-25T05:40:15.252Z,98319.03
2022-12-25T05:42:47.604Z,98319.69
2022-12-25T05:45:20.841Z,98326.28
2022-12-25T05:47:53.391Z,98324.28
2022-12-25T05:50:26.195Z,98319.69
2022-12-25T05:53:12.613Z,98317.00
2022-12-25T05:55:44.613Z,98311.75
2022-12-25T05:58:17.331Z,98308.44
2022-12-25T06:00:49.641Z,98309.72
2022-12-25T06:03:22.582Z,98309.09
2022-12-25T06:05:54.686Z,98305.13
2022-12-25T06:08:27.405Z,98307.09
2022-12-25T06:10:59.298Z,98305.06
2022-12-25T06:13:34.087Z,98307.75
2022-12-25T06:16:11.765Z,98305.75
2022-12-25T06:18:49.052Z,98293.91
2022-12-25T06:21:21.084Z,98298.47
2022-12-25T06:23:53.875Z,98295.13
2022-12-25T06:26:25.882Z,98293.19
2022-12-25T06:28:58.704Z,98292.53
2022-12-25T06:31:31.442Z,98291.81
2022-12-25T06:34:04.274Z,98287.19
2022-12-25T06:36:38.028Z,98300.41
2022-12-25T06:39:11.351Z,98291.16
2022-12-25T06:41:43.967Z,98287.22
2022-12-25T06:44:16.312Z,98286.50
2022-12-25T06:46:48.612Z,98275.97
2022-12-25T06:49:22.230Z,98277.28
2022-12-25T06:51:54.135Z,98282.56
2022-12-25T06:54:27.264Z,98291.06
2022-12-25T06:56:59.235Z,98295.09
2022-12-25T06:59:32.018Z,98300.97
2022-12-25T07:02:04.221Z,98301.66
2022-12-25T07:04:42.306Z,98294.41
2022-12-25T07:07:15.149Z,98288.44
2022-12-25T07:09:48.449Z,98297.03
2022-12-25T07:12:25.755Z,98299.66
2022-12-25T07:14:59.041Z,98295.66
2022-12-25T07:17:30.993Z,98300.28
2022-12-25T07:20:03.515Z,98300.25
2022-12-25T07:22:35.474Z,98296.91
2022-12-25T07:25:09.279Z,98295.59
2022-12-25T07:27:41.505Z,98298.28
2022-12-25T07:30:14.608Z,98305.50
2022-12-25T07:32:50.255Z,98301.59
2022-12-25T07:35:22.496Z,98298.31
2022-12-25T07:37:55.255Z,98298.34
2022-12-25T07:40:27.166Z,98304.94
2022-12-25T07:42:59.483Z,98305.59
2022-12-25T07:45:31.870Z,98307.59
2022-12-25T07:48:06.263Z,98299.69
2022-12-25T07:50:41.141Z,98306.88
2022-12-25T07:53:13.481Z,98305.53
2022-12-25T07:55:45.346Z,98316.78
2022-12-25T07:58:23.184Z,98322.06
2022-12-25T08:00:56.448Z,98328.66
2022-12-25T08:03:29.527Z,98322.13
2022-12-25T08:06:03.962Z,98318.81
2022-12-25T08:08:38.174Z,98325.34
2022-12-25T08:11:10.603Z,98327.97
2022-12-25T08:13:43.425Z,98327.94
2022-12-25T08:16:15.580Z,98331.84
2022-12-25T08:18:48.678Z,98342.91
2022-12-25T08:21:21.442Z,98340.28
2022-12-25T08:23:53.484Z,98346.19
2022-12-25T08:26:26.226Z,98327.81
2022-12-25T08:28:58.146Z,98308.13
2022-12-25T08:34:26.530Z,98299.72
2022-12-25T08:36:59.338Z,98310.97
2022-12-25T08:39:31.665Z,98307.72
2022-12-25T08:42:04.557Z,98318.25
2022-12-25T08:44:36.883Z,98320.28
2022-12-25T08:47:09.622Z,98315.03
2022-12-25T08:49:42.776Z,98313.69
2022-12-25T08:52:15.421Z,98311.66
2022-12-25T08:54:48.693Z,98317.59
2022-12-25T08:57:20.753Z,98311.66
2022-12-25T08:59:53.519Z,98304.34
2022-12-25T09:02:25.653Z,98309.66
2022-12-25T09:04:58.590Z,98306.47
2022-12-25T09:07:30.952Z,98290.03
2022-12-25T09:10:03.362Z,98298.41
2022-12-25T09:12:35.261Z,98294.19
2022-12-25T09:15:08.651Z,98291.81
2022-12-25T09:17:41.475Z,98285.06
2022-12-25T09:20:13.433Z,98293.72
2022-12-25T09:22:46.226Z,98285.88
2022-12-25T09:25:18.193Z,98291.88
2022-12-25T09:27:50.742Z,98294.25
2022-12-25T09:30:23.589Z,98288.59
2022-12-25T09:32:55.989Z,98293.06
2022-12-25T09:35:28.272Z,98293.84
2022-12-25T09:38:01.175Z,98295.66
2022-12-25T09:43:29.157Z,98290.19
2022-12-25T09:46:04.724Z,98303.56
2022-12-25T09:48:46.344Z,98302.47
2022-12-25T09:51:19.083Z,98303.88
2022-12-25T09:54:05.360Z,98288.84
2022-12-25T09:56:37.658Z,98296.47
2022-12-25T09:59:24.999Z,98295.31
2022-12-25T10:02:35.392Z,98289.47
2022-12-25T10:05:41.892Z,98287.63
2022-12-25T10:08:29.589Z,98283.97
2022-12-25T10:11:19.950Z,98281.28
2022-12-25T10:14:23.876Z,98272.13
2022-12-25T10:17:24.609Z,98286.53
2022-12-25T10:20:27.781Z,98294.06
2022-12-25T10:23:02.558Z,98288.41
2022-12-25T10:25:36.938Z,98286.94
2022-12-25T10:28:20.394Z,98295.03
2022-12-25T10:30:53.505Z,98285.41
2022-12-25T10:33:26.424Z,98299.25
2022-12-25T10:35:59.192Z,98297.78
2022-12-25T10:38:31.471Z,98297.66
2022-12-25T10:41:40.431Z,98295.84
2022-12-25T10:44:24.669Z,98291.88
2022-12-25T10:46:59.950Z,98287.50
2022-12-25T10:49:37.449Z,98288.56
2022-12-25T10:52:28.318Z,98288.75
2022-12-25T10:55:13.455Z,98300.06
2022-12-25T10:57:46.864Z,98295.94
2022-12-25T11:00:26.912Z,98292.47
2022-12-25T11:03:00.281Z,98294.63
2022-12-25T11:05:36.788Z,98286.44
2022-12-25T11:08:22.402Z,98268.72
2022-12-25T11:11:07.568Z,98270.09
2022-12-25T11:13:49.233Z,98257.56
2022-12-25T11:16:36.820Z,98237.44
2022-12-25T11:19:38.663Z,98221.16
2022-12-25T11:22:18.847Z,98214.78
2022-12-25T11:24:52.036Z,98212.28
2022-12-25T11:27:30.243Z,98188.53
2022-12-25T11:30:05.070Z,98183.56
2022-12-25T11:32:55.790Z,98182.16
2022-12-25T11:35:33.201Z,98182.34
2022-12-25T11:38:05.147Z,98176.13
2022-12-25T11:40:49.839Z,98174.72
2022-12-25T11:43:27.293Z,98178.44
2022-12-25T11:46:37.204Z,98184.84
2022-12-25T11:49:16.944Z,98202.50
2022-12-25T11:51:54.202Z,98192.69
2022-12-25T11:54:34.488Z,98203.91
2022-12-25T11:57:07.210Z,98196.91
2022-12-25T12:00:09.746Z,98198.91
2022-12-25T12:02:58.944Z,98184.09
2022-12-25T12:05:53.031Z,98190.28
2022-12-25T12:08:25.330Z,98194.44
2022-12-25T12:11:18.156Z,98185.91
2022-12-25T12:14:22.330Z,98157.16
2022-12-25T12:16:55.293Z,98153.22
2022-12-25T12:19:31.712Z,98147.88
2022-12-25T12:22:05.570Z,98169.44
2022-12-25T12:24:43.139Z,98167.72
2022-12-25T12:27:37.194Z,98161.91
2022-12-25T12:30:41.028Z,98161.81
2022-12-25T12:33:58.105Z,98160.38
2022-12-25T12:36:36.231Z,98163.00
2022-12-25T12:39:25.711Z,98176.31
2022-12-25T12:41:57.655Z,98165.50
2022-12-25T12:44:35.033Z,98160.56
2022-12-25T12:47:09.675Z,98155.78
2022-12-25T12:49:42.644Z,98173.72
2022-12-25T12:52:44.355Z,98162.16
2022-12-25T12:55:16.900Z,98158.53
2022-12-25T12:58:00.816Z,98164.88
2022-12-25T13:01:18.196Z,98157.59
2022-12-25T13:04:33.072Z,98163.41
2022-12-25T13:07:35.906Z,98157.59
2022-12-25T13:10:24.507Z,98158.97
2022-12-25T13:13:14.079Z,98151.38
2022-12-25T13:15:49.516Z,98159.66
2022-12-25T13:18:21.534Z,98155.19
2022-12-25T13:21:01.394Z,98153.63
2022-12-25T13:23:36.834Z,98156.13
2022-12-25T13:26:17.462Z,98158.13
2022-12-25T13:28:49.823Z,98158.97
2022-12-25T13:31:26.355Z,98157.28
2022-12-25T13:34:18.589Z,98152.94
2022-12-25T13:36:51.289Z,98170.28
2022-12-25T13:39:25.112Z,98174.22
2022-12-25T13:42:06.556Z,98168.72
2022-12-25T13:44:49.451Z,98170.13
2022-12-25T13:47:26.704Z,98178.34
2022-12-25T13:50:13.487Z,98187.44
2022-12-25T13:52:45.418Z,98189.13
2022-12-25T13:55:27.548Z,98186.75
2022-12-25T13:58:03.905Z,98190.94
2022-12-25T14:00:45.801Z,98184.88
2022-12-25T14:03:40.383Z,98192.03
2022-12-25T14:06:31.369Z,98200.22
2022-12-25T14:09:04.610Z,98190.66
2022-12-25T14:11:37.600Z,98189.13
2022-12-25T14:14:23.456Z,98183.56
2022-12-25T14:16:59.662Z,98181.81
2022-12-25T14:19:34.043Z,98181.25
2022-12-25T14:22:27.645Z,98172.03
2022-12-25T14:24:59.728Z,98174.72
2022-12-25T14:27:32.489Z,98188.69
2022-12-25T14:30:05.673Z,98190.19
2022-12-25T14:32:45.299Z,98194.88
2022-12-25T14:35:23.289Z,98199.03
2022-12-25T14:38:00.597Z,98206.38
2022-12-25T14:40:36.029Z,98212.06
2022-12-25T14:43:25.779Z,98198.75
2022-12-25T14:46:06.518Z,98217.09
2022-12-25T14:48:39.375Z,98218.66
2022-12-25T14:51:18.779Z,98224.13
2022-12-25T14:53:56.384Z,98219.63
2022-12-25T14:56:33.503Z,98232.31
2022-12-25T14:59:09.931Z,98221.38
2022-12-25T15:01:42.954Z,98243.53
2022-12-25T15:04:18.473Z,98237.03
2022-12-25T15:07:00.527Z,98249.78
2022-12-25T15:09:33.762Z,98238.81
2022-12-25T15:12:06.553Z,98240.41
2022-12-25T15:14:40.219Z,98265.09
2022-12-25T15:17:25.836Z,98267.78
2022-12-25T15:20:00.737Z,98277.34
2022-12-25T15:22:53.985Z,98264.47
2022-12-25T15:25:28.776Z,98271.34
2022-12-25T15:28:01.762Z,98273.50
2022-12-25T15:30:35.440Z,98276.91
2022-12-25T15:33:13.537Z,98254.78
2022-12-25T15:35:46.020Z,98267.19
2022-12-25T15:38:18.812Z,98275.81
2022-12-25T15:40:51.435Z,98276.84
2022-12-25T15:43:40.302Z,98286.66
2022-12-25T15:46:13.379Z,98284.69
2022-12-25T15:48:46.122Z,98289.41
2022-12-25T15:51:18.566Z,98288.72
2022-12-25T15:53:50.986Z,98289.41
2022-12-25T15:56:24.426Z,98307.00
2022-12-25T15:58:56.640Z,98286.94
2022-12-25T16:01:29.429Z,98298.09
2022-12-25T16:04:02.484Z,98290.72
2022-12-25T16:06:34.748Z,98295.59
2022-12-25T16:09:09.647Z,98287.69
2022-12-25T16:11:43.534Z,98285.25
2022-12-25T16:14:16.549Z,98301.41
2022-12-25T16:16:48.500Z,98297.34
2022-12-25T16:19:21.907Z,98293.38
2022-12-25T16:21:54.443Z,98310.72
2022-12-25T16:24:28.681Z,98316.19
2022-12-25T16:27:00.582Z,98309.25
2022-12-25T16:29:33.460Z,98308.53
2022-12-25T16:32:06.058Z,98305.88
2022-12-25T16:34:40.607Z,98311.78
2022-12-25T16:37:12.646Z,98319.94
2022-12-25T16:39:45.590Z,98318.72
2022-12-25T16:42:17.499Z,98322.69
2022-12-25T16:44:50.316Z,98324.78
2022-12-25T16:47:22.287Z,98328.13
2022-12-25T16:49:55.002Z,98317.50
2022-12-25T16:52:26.980Z,98330.78
2022-12-25T16:55:00.016Z,98326.81
2022-12-25T16:57:34.370Z,98313.56
2022-12-25T17:00:07.235Z,98335.66
2022-12-25T17:02:41.255Z,98337.63
2022-12-25T17:05:14.087Z,98333.69
2022-12-25T17:07:47.008Z,98356.38
2022-12-25T17:10:21.617Z,98360.88
2022-12-25T17:12:53.574Z,98348.53
2022-12-25T17:15:26.543Z,98340.59
2022-12-25T17:17:58.465Z,98339.06
2022-12-25T17:20:31.275Z,98350.41
2022-12-25T17:23:03.780Z,98347.19
2022-12-25T17:25:36.698Z,98342.38
2022-12-25T17:28:09.424Z,98329.53
2022-12-25T17:30:41.338Z,98345.50
2022-12-25T17:33:14.241Z,98332.13
2022-12-25T17:35:47.002Z,98346.06
2022-12-25T17:38:18.932Z,98358.09
2022-12-25T17:40:59.569Z,98350.97
2022-12-25T17:43:33.353Z,98365.09
2022-12-25T17:46:13.827Z,98363.63
2022-12-25T17:48:46.952Z,98360.28
2022-12-25T17:51:23.484Z,98369.53
2022-12-25T17:53:59.476Z,98362.13
2022-12-25T17:56:33.580Z,98351.38
2022-12-25T17:59:08.345Z,98358.00
2022-12-25T18:01:41.229Z,98355.13
2022-12-25T18:04:13.666Z,98346.56
2022-12-25T18:06:46.087Z,98355.94
2022-12-25T18:09:20.229Z,98357.28
2022-12-25T18:11:52.709Z,98362.59
2022-12-25T18:14:25.482Z,98350.69
2022-12-25T18:16:57.358Z,98356.00
2022-12-25T18:19:31.479Z,98350.50
2022-12-25T18:22:04.005Z,98346.09
2022-12-25T18:24:36.752Z,98334.78
2022-12-25T18:27:09.740Z,98334.78
2022-12-25T18:29:42.289Z,98323.28
2022-12-25T18:32:15.030Z,98330.63
2022-12-25T18:34:46.916Z,98331.25
2022-12-25T18:37:19.759Z,98327.44
2022-12-25T18:39:51.665Z,98339.19
2022-12-25T18:42:39.616Z,98340.53
2022-12-25T18:45:14.849Z,98321.41
2022-12-25T18:47:47.854Z,98324.06
2022-12-25T18:50:20.142Z,98315.44
2022-12-25T18:52:52.845Z,98326.06
2022-12-25T18:55:24.749Z,98327.97
2022-12-25T18:57:57.898Z,98321.34
2022-12-25T19:00:30.304Z,98334.75
2022-12-25T19:03:03.291Z,98333.91
2022-12-25T19:05:40.347Z,98324.00
2022-12-25T19:08:13.207Z,98320.69
2022-12-25T19:10:45.758Z,98330.75
2022-12-25T19:13:18.472Z,98332.00
2022-12-25T19:15:50.362Z,98336.56
2022-12-25T19:18:23.595Z,98324.66
2022-12-25T19:20:55.499Z,98325.31
2022-12-25T19:23:28.245Z,98334.09
2022-12-25T19:26:00.618Z,98332.69
2022-12-25T19:28:33.126Z,98333.34
2022-12-25T19:31:07.930Z,98337.88
2022-12-25T19:33:43.466Z,98328.16
2022-12-25T19:36:16.777Z,98329.97
2022-12-25T19:38:49.459Z,98330.56
2022-12-25T19:41:21.568Z,98331.25
2022-12-25T19:43:54.637Z,98333.88
2022-12-25T19:46:34.140Z,98335.38
2022-12-25T19:49:08.683Z,98329.97
2022-12-25T19:51:44.853Z,98328.16
2022-12-25T19:54:20.922Z,98333.91
2022-12-25T19:56:52.868Z,98337.28
2022-12-25T19:59:25.771Z,98332.59
2022-12-25T20:01:57.834Z,98336.00
2022-12-25T20:04:31.279Z,98336.09
2022-12-25T20:07:03.206Z,98324.78
2022-12-25T20:09:35.993Z,98330.75
2022-12-25T20:12:10.366Z,98334.88
2022-12-25T20:14:44.337Z,98336.81
2022-12-25T20:17:17.084Z,98337.50
2022-12-25T20:19:50.330Z,98340.06
2022-12-25T20:22:22.263Z,98342.06
2022-12-25T20:24:54.973Z,98343.44
2022-12-25T20:27:26.927Z,98334.09
2022-12-25T20:30:00.096Z,98346.00
2022-12-25T20:32:32.003Z,98346.34
2022-12-25T20:35:06.017Z,98353.56
2022-12-25T20:37:38.371Z,98356.44
2022-12-25T20:40:12.562Z,98359.78
2022-12-25T20:42:44.456Z,98360.34
2022-12-25T20:45:17.405Z,98366.19
2022-12-25T20:47:49.772Z,98366.25
2022-12-25T20:50:21.718Z,98363.63
2022-12-25T20:52:55.602Z,98370.53
2022-12-25T20:55:27.463Z,98372.97
2022-12-25T20:58:00.188Z,98382.25
2022-12-25T21:00:32.064Z,98375.53
2022-12-25T21:06:01.134Z,98380.31
2022-12-25T21:08:34.696Z,98378.38
2022-12-25T21:11:07.540Z,98380.00
2022-12-25T21:13:42.536Z,98376.75
2022-12-25T21:16:26.013Z,98370.03
2022-12-25T21:18:59.258Z,98376.66
2022-12-25T21:21:31.704Z,98384.09
2022-12-25T21:24:03.888Z,98389.59
2022-12-25T21:26:39.088Z,98391.59
2022-12-25T21:29:13.096Z,98388.75
2022-12-25T21:32:04.143Z,98383.41
2022-12-25T21:34:36.586Z,98389.69
2022-12-25T21:37:09.835Z,98394.69
2022-12-25T21:39:41.782Z,98389.25
2022-12-25T21:48:03.483Z,98396.00
2022-12-25T21:50:55.788Z,98393.88
2022-12-25T21:53:27.724Z,98394.47
2022-12-25T21:56:02.896Z,98391.84
2022-12-25T21:58:35.215Z,98403.19
2022-12-25T22:01:08.420Z,98411.28
2022-12-25T22:03:40.465Z,98411.97
2022-12-25T22:06:32.089Z,98413.94
2022-12-25T22:09:07.510Z,98416.75
2022-12-25T22:11:59.082Z,98419.69
2022-12-25T22:14:54.337Z,98421.78
2022-12-25T22:17:49.167Z,98420.53
2022-12-25T22:20:37.526Z,98429.38
2022-12-25T22:23:09.834Z,98434.25
2022-12-25T22:25:42.592Z,98426.81
2022-12-25T22:28:14.972Z,98438.16
2022-12-25T22:30:47.750Z,98430.16
2022-12-25T22:33:20.443Z,98422.44
2022-12-25T22:36:05.772Z,98425.00
2022-12-25T22:38:37.678Z,98437.06
2022-12-25T22:41:10.512Z,98433.63
2022-12-25T22:44:16.042Z,98439.72
2022-12-25T22:46:35.518Z,98441.06
2022-12-25T22:49:07.992Z,98445.53
2022-12-25T22:51:40.722Z,98435.66
2022-12-25T22:54:13.231Z,98449.63
2022-12-25T22:56:49.223Z,98453.63
2022-12-25T22:59:23.213Z,98455.53
2022-12-25T23:01:56.083Z,98448.28
2022-12-25T23:04:29.035Z,98476.72
2022-12-25T23:07:02.525Z,98454.22
2022-12-25T23:09:34.940Z,98466.28
2022-12-25T23:12:07.504Z,98459.56
2022-12-25T23:14:39.558Z,98461.72
2022-12-25T23:17:32.420Z,98466.19
2022-12-25T23:20:24.090Z,98476.72
2022-12-25T23:23:14.361Z,98480.50
2022-12-25T23:26:05.977Z,98465.78
2022-12-25T23:29:00.211Z,98479.19
2022-12-25T23:31:40.243Z,98491.97
2022-12-25T23:34:13.400Z,98489.88
2022-12-25T23:36:46.254Z,98495.09
2022-12-25T23:39:18.178Z,98495.13
2022-12-25T23:41:50.944Z,98486.53
2022-12-25T23:44:23.676Z,98494.19
2022-12-25T23:46:57.065Z,98491.03
2022-12-25T23:49:29.749Z,98482.34
2022-12-25T23:52:02.597Z,98488.16
2022-12-25T23:54:35.023Z,98485.06
2022-12-25T23:57:06.945Z,98485.13
2022-12-25T23:59:39.719Z,98482.56
